INFORMACIÓN METAR y TAF
METAR FOR OIIE
ADDS - METARS form results

(2318 UTC 23 May 2019)
Data provider http://aviationweather.gov/metar/data/
 
METAR text: OIIE 232300Z 32004KT CAVOK 20/07 Q1014
Conditions at: OIIE (IMAM KHOMEINI , IR) observed 2300 UTC 23 May 2019
Temperature: 20.0°C (68°F)
Dewpoint: 7.0°C (45°F) [RH = 43%]
Pressure (altimeter): 29.94 inches Hg (1014.0 mb)
Winds: from the NW (320 degrees) at 5 MPH (4 knots; 2.1 m/s)
Visibility: 6 or more miles (10+ km)
Ceiling: ceiling and visibility are OK
Clouds: unknown
Weather: no significant weather observed at this time

METAR text: OIIE 232230Z 31006KT CAVOK 22/06 Q1014
Conditions at: OIIE (IMAM KHOMEINI , IR) observed 2230 UTC 23 May 2019
Temperature: 22.0°C (72°F)
Dewpoint: 6.0°C (43°F) [RH = 35%]
Pressure (altimeter): 29.94 inches Hg (1014.0 mb)
Winds: from the NW (310 degrees) at 7 MPH (6 knots; 3.1 m/s)
Visibility: 6 or more miles (10+ km)
Ceiling: ceiling and visibility are OK
Clouds: unknown
Weather: no significant weather observed at this time

Forecast for: OIIE (IMAM KHOMEINI , IR)
Text: TAF OIIE 232310Z 2400/2506 32008KT 8000 FEW035
Forecast period: 0000 UTC 24 May 2019 to 0600 UTC 25 May 2019
Forecast type: FROM: standard forecast or significant change
Winds: from the NW (320 degrees) at 9 MPH (8 knots; 4.1 m/s)
Visibility: 5 miles (8 km)
Ceiling: at least 12,000 feet AGL
Clouds: few clouds at 3500 feet AGL
Weather: no significant weather forecast for this period
Text: TEMPO 2409/2416 30018KT
Forecast period: 0900 to 1600 UTC 24 May 2019
Forecast type: TEMPORARY: The following changes expected for less than half the time period
Winds: from the WNW (300 degrees) at 21 MPH (18 knots; 9.3 m/s)
Visibility: missing
Ceiling: unknown
Clouds: missing
Weather: no significant weather forecast for this period

 MAPA DE AEROPUERTO

 INFORMACIÓN DE PISTA
Pista 11R Longitud 13940 ft Ancho 148 ft
Elevación 3305 ft Umbral desplazado 0 ft Rumbo de pista 109
Pista 29L Longitud 13940 ft Ancho 148 ft
Elevación 3257 ft Umbral desplazado 1972 ft Rumbo de pista 289
Pista 11L Longitud 13772 ft Ancho 148 ft
Elevación 3305 ft Umbral desplazado 0 ft Rumbo de pista 109
Pista 29R Longitud 13772 ft Ancho 148 ft
Elevación 3256 ft Umbral desplazado 0 ft Rumbo de pista 289

 FRECUANCIAS DEL AEROPUERTO
Tipo ATIS Nombre ATIS Frecuencia 127.2 MHZ
Tipo GND Nombre GND Frecuencia 121.6 MHZ
Tipo TWR Nombre TWR Frecuencia 118.7 MHZ

 RADIO AYUDAS DEL AEROPUERTO
Tipo VOR-DME Nombre Imam Khomeini Frecuencia 114300 KHZ



              


PayPal

©2019 Oasis Virtual Airlines
Simulando desde el 2013

Oasis Líneas Aéreas Virtuales no está relacionada con ninguna compañía real.
Se trata de un entorno virtual de simulación aérea, sin ánimo de lucro.


Visitas:

VAM v2.6.2 [MOD.]